Aviation Digital Data Service (ADDS)

Output produced by METARs form (0830 UTC 19 April 2019)
found at http://www.aviationweather.gov/metar/data/
 
Forecast for: ZSOF (HEFEI/XINGIAO , CN)
Text: TAF ZSOF 190301Z 1906/2006 07004MPS 3000 HZ NSC TX28/1907Z TN17/1921Z
Forecast period: 0600 UTC 19 April 2019 to 0600 UTC 20 April 2019
Forecast type: FROM: standard forecast or significant change
Winds: from the ENE (70 degrees) at 9 MPH (8 knots; 4.1 m/s)
Visibility: 1.86 miles (2.99 km)
Ceiling: unknown
Clouds: missing
Weather: HZ  (haze)